createdAt,value
2023-05-22T00:02:13.523Z,16.77
2023-05-22T00:04:40.051Z,18.80
2023-05-22T00:07:07.104Z,15.80
2023-05-22T00:09:33.532Z,19.40
2023-05-22T00:12:00.002Z,16.38
2023-05-22T00:14:26.412Z,18.48
2023-05-22T00:16:53.351Z,15.48
2023-05-22T00:19:23.193Z,19.75
2023-05-22T00:21:51.344Z,13.93
2023-05-22T00:24:17.901Z,15.20
2023-05-22T00:26:44.315Z,18.83
2023-05-22T00:29:10.833Z,14.88
2023-05-22T00:31:37.270Z,14.73
2023-05-22T00:34:03.762Z,17.00
2023-05-22T00:36:30.303Z,16.58
2023-05-22T00:38:56.800Z,15.65
2023-05-22T00:41:23.758Z,16.13
2023-05-22T00:43:51.215Z,18.83
2023-05-22T00:46:21.389Z,16.45
2023-05-22T00:51:15.845Z,13.90
2023-05-22T00:53:43.370Z,16.60
2023-05-22T00:56:10.257Z,16.75
2023-05-22T00:58:37.510Z,17.45
2023-05-22T01:01:05.404Z,15.15
2023-05-22T01:03:32.185Z,15.80
2023-05-22T01:05:58.770Z,15.20
2023-05-22T01:08:25.239Z,12.65
2023-05-22T01:11:14.051Z,17.30
2023-05-22T01:14:00.629Z,21.80
2023-05-22T01:16:32.310Z,15.93
2023-05-22T01:19:22.514Z,17.83
2023-05-22T01:22:13.697Z,17.70
2023-05-22T01:24:58.246Z,22.30
2023-05-22T01:28:06.364Z,14.80
2023-05-22T01:30:50.037Z,19.60
2023-05-22T01:33:18.050Z,22.52
2023-05-22T01:35:48.507Z,14.73
2023-05-22T01:38:16.604Z,15.50
2023-05-22T01:40:45.746Z,15.30
2023-05-22T01:43:14.214Z,18.48
2023-05-22T01:45:40.767Z,17.08
2023-05-22T01:48:07.301Z,16.63
2023-05-22T01:50:34.126Z,20.42
2023-05-22T01:53:15.441Z,16.25
2023-05-22T01:56:05.248Z,18.17
2023-05-22T01:58:58.699Z,11.95
2023-05-22T02:01:28.935Z,17.92
2023-05-22T02:03:58.056Z,15.60
2023-05-22T02:06:32.444Z,15.07
2023-05-22T02:09:01.247Z,17.10
2023-05-22T02:11:30.501Z,16.92
2023-05-22T02:13:57.804Z,16.58
2023-05-22T02:16:24.505Z,12.65
2023-05-22T02:18:51.350Z,17.40
2023-05-22T02:21:17.815Z,13.68
2023-05-22T02:23:44.547Z,13.68
2023-05-22T02:26:11.054Z,14.90
2023-05-22T02:28:37.959Z,15.98
2023-05-22T02:31:04.493Z,13.55
2023-05-22T02:33:30.942Z,16.25
2023-05-22T02:35:57.388Z,11.57
2023-05-22T02:38:23.991Z,13.75
2023-05-22T02:40:50.471Z,14.52
2023-05-22T02:43:16.899Z,17.10
2023-05-22T02:45:43.326Z,14.00
2023-05-22T02:48:09.790Z,13.95
2023-05-22T02:50:36.287Z,11.35
2023-05-22T02:53:02.707Z,14.35
2023-05-22T02:55:29.157Z,16.55
2023-05-22T02:57:55.588Z,17.38
2023-05-22T03:00:22.569Z,20.60
2023-05-22T03:02:49.141Z,18.05
2023-05-22T03:05:17.661Z,15.93
2023-05-22T03:07:47.365Z,12.02
2023-05-22T03:12:41.280Z,9.80
2023-05-22T03:15:08.322Z,14.70
2023-05-22T03:17:34.856Z,11.40
2023-05-22T03:20:01.320Z,16.15
2023-05-22T03:22:27.737Z,12.70
2023-05-22T03:24:54.169Z,16.33
2023-05-22T03:27:21.239Z,15.30
2023-05-22T03:29:47.683Z,16.85
2023-05-22T03:32:14.122Z,12.73
2023-05-22T03:34:41.080Z,14.18
2023-05-22T03:37:09.002Z,16.60
2023-05-22T03:39:36.103Z,12.35
2023-05-22T03:42:02.582Z,11.63
2023-05-22T03:44:29.036Z,14.18
2023-05-22T03:46:55.582Z,16.67
2023-05-22T03:49:22.023Z,14.18
2023-05-22T03:51:48.507Z,11.60
2023-05-22T03:54:14.924Z,15.25
2023-05-22T03:56:41.351Z,13.40
2023-05-22T03:59:07.775Z,9.60
2023-05-22T04:01:34.598Z,11.48
2023-05-22T04:04:01.974Z,12.02
2023-05-22T04:06:32.794Z,11.60
2023-05-22T04:09:00.624Z,17.05
2023-05-22T04:11:27.137Z,14.10
2023-05-22T04:13:53.578Z,15.27
2023-05-22T04:16:20.902Z,14.82
2023-05-22T04:18:47.387Z,14.85
2023-05-22T04:21:13.812Z,11.13
2023-05-22T04:23:43.224Z,13.73
2023-05-22T04:26:10.261Z,18.83
2023-05-22T04:28:36.796Z,13.52
2023-05-22T04:31:06.356Z,11.35
2023-05-22T04:33:34.416Z,14.05
2023-05-22T04:36:02.262Z,14.02
2023-05-22T04:38:28.879Z,11.15
2023-05-22T04:40:55.311Z,10.93
2023-05-22T04:43:23.396Z,22.90
2023-05-22T04:45:49.856Z,15.93
2023-05-22T04:48:16.294Z,15.40
2023-05-22T04:50:46.310Z,12.75
2023-05-22T04:53:13.090Z,10.07
2023-05-22T04:55:39.820Z,11.88
2023-05-22T04:58:06.424Z,11.23
2023-05-22T05:00:33.269Z,11.77
2023-05-22T05:03:00.414Z,13.35
2023-05-22T05:05:27.154Z,12.30
2023-05-22T05:07:53.577Z,10.27
2023-05-22T05:10:20.047Z,14.57
2023-05-22T05:12:46.535Z,13.75
2023-05-22T05:15:12.985Z,13.57
2023-05-22T05:17:39.513Z,8.73
2023-05-22T05:20:07.758Z,11.43
2023-05-22T05:22:34.367Z,11.18
2023-05-22T05:25:01.106Z,12.18
2023-05-22T05:27:27.564Z,6.80
2023-05-22T05:29:54.149Z,10.43
2023-05-22T05:32:20.928Z,13.65
2023-05-22T05:34:47.445Z,10.88
2023-05-22T05:37:14.157Z,11.43
2023-05-22T05:39:40.799Z,13.20
2023-05-22T05:42:07.302Z,11.85
2023-05-22T05:44:33.772Z,10.55
2023-05-22T05:47:01.298Z,14.52
2023-05-22T05:49:27.708Z,11.93
2023-05-22T05:51:54.197Z,12.38
2023-05-22T05:54:21.652Z,11.13
2023-05-22T05:56:48.452Z,13.13
2023-05-22T05:59:14.954Z,12.13
2023-05-22T06:01:44.616Z,10.40
2023-05-22T06:04:11.767Z,10.82
2023-05-22T06:06:39.498Z,8.15
2023-05-22T06:09:06.644Z,9.38
2023-05-22T06:11:34.029Z,14.75
2023-05-22T06:14:04.897Z,11.32
2023-05-22T06:16:31.537Z,9.65
2023-05-22T06:18:59.319Z,8.48
2023-05-22T06:21:26.090Z,12.40
2023-05-22T06:23:52.826Z,12.70
2023-05-22T06:26:19.356Z,10.73
2023-05-22T06:28:45.837Z,7.20
2023-05-22T06:31:12.323Z,7.57
2023-05-22T06:33:40.634Z,11.88
2023-05-22T06:36:08.803Z,11.00
2023-05-22T06:38:35.405Z,6.78
2023-05-22T06:41:01.976Z,10.60
2023-05-22T06:43:28.451Z,11.15
2023-05-22T06:45:54.958Z,12.07
2023-05-22T06:48:21.485Z,6.35
2023-05-22T06:50:47.952Z,7.53
2023-05-22T06:53:14.463Z,11.27
2023-05-22T06:55:41.924Z,7.55
2023-05-22T06:58:08.482Z,8.90
2023-05-22T07:00:35.282Z,9.30
2023-05-22T07:03:02.331Z,10.40
2023-05-22T07:05:28.955Z,10.10
2023-05-22T07:07:55.616Z,8.07
2023-05-22T07:10:22.149Z,9.90
2023-05-22T07:12:48.616Z,4.45
2023-05-22T07:15:15.160Z,9.63
2023-05-22T07:17:41.873Z,5.85
2023-05-22T07:20:09.657Z,9.45
2023-05-22T07:22:36.159Z,5.40
2023-05-22T07:25:02.634Z,6.47
2023-05-22T07:27:29.104Z,12.52
2023-05-22T07:29:55.553Z,7.13
2023-05-22T07:32:22.193Z,4.63
2023-05-22T07:34:50.037Z,8.05
2023-05-22T07:37:16.522Z,9.50
2023-05-22T07:39:43.068Z,7.63
2023-05-22T07:42:09.621Z,6.00
2023-05-22T07:44:36.087Z,5.38
2023-05-22T07:47:02.639Z,10.32
2023-05-22T07:49:29.107Z,7.00
2023-05-22T07:51:55.587Z,6.63
2023-05-22T07:54:22.071Z,7.97
2023-05-22T07:56:48.582Z,3.58
2023-05-22T07:59:16.230Z,8.52
2023-05-22T08:01:42.797Z,4.00
2023-05-22T08:04:09.811Z,8.30
2023-05-22T08:06:36.697Z,6.47
2023-05-22T08:09:04.840Z,7.30
2023-05-22T08:11:31.386Z,11.63
2023-05-22T08:13:58.090Z,10.07
2023-05-22T08:16:24.642Z,6.25
2023-05-22T08:18:51.518Z,10.68
2023-05-22T08:21:18.666Z,5.53
2023-05-22T08:23:45.213Z,5.97
2023-05-22T08:26:11.879Z,7.10
2023-05-22T08:28:41.962Z,8.60
2023-05-22T08:31:08.502Z,7.53
2023-05-22T08:33:34.963Z,15.57
2023-05-22T08:36:01.413Z,10.00
2023-05-22T08:38:27.890Z,7.38
2023-05-22T08:40:55.658Z,5.63
2023-05-22T08:43:22.317Z,7.13
2023-05-22T08:45:55.929Z,6.30
2023-05-22T08:48:23.735Z,6.30
2023-05-22T08:50:58.137Z,5.40
2023-05-22T08:53:28.230Z,7.68
2023-05-22T08:55:55.331Z,4.10
2023-05-22T08:58:22.276Z,6.03
2023-05-22T09:00:49.387Z,4.05
2023-05-22T09:03:16.171Z,4.25
2023-05-22T09:05:45.367Z,4.63
2023-05-22T09:08:19.697Z,9.35
2023-05-22T09:10:47.887Z,9.80
2023-05-22T09:13:25.162Z,7.10
2023-05-22T09:15:51.688Z,5.38
2023-05-22T09:18:18.248Z,3.83
2023-05-22T09:20:44.874Z,4.32
2023-05-22T09:23:17.745Z,3.70
2023-05-22T09:25:44.892Z,7.03
2023-05-22T09:28:12.783Z,5.00
2023-05-22T09:30:40.134Z,4.85
2023-05-22T09:33:08.753Z,4.88
2023-05-22T09:35:38.946Z,8.55
2023-05-22T09:38:06.434Z,17.70
2023-05-22T09:40:35.123Z,5.82
2023-05-22T09:43:07.051Z,4.90
2023-05-22T09:45:35.875Z,11.40
2023-05-22T09:48:06.730Z,4.05
2023-05-22T09:50:33.275Z,8.32
2023-05-22T09:53:03.067Z,5.50
2023-05-22T09:55:30.872Z,4.90
2023-05-22T09:57:58.286Z,6.28
2023-05-22T10:00:25.545Z,8.52
2023-05-22T10:02:58.886Z,3.83
2023-05-22T10:05:30.834Z,9.55
2023-05-22T10:08:13.932Z,5.50
2023-05-22T10:10:43.164Z,6.13
2023-05-22T10:13:10.984Z,5.90
2023-05-22T10:15:38.112Z,6.53
2023-05-22T10:18:05.872Z,9.02
2023-05-22T10:20:32.839Z,6.05
2023-05-22T10:23:02.565Z,7.07
2023-05-22T10:25:30.280Z,5.70
2023-05-22T10:27:58.000Z,7.93
2023-05-22T10:30:39.707Z,6.00
2023-05-22T10:33:18.210Z,9.60
2023-05-22T10:35:52.923Z,5.78
2023-05-22T10:38:46.856Z,5.60
2023-05-22T10:41:14.142Z,5.97
2023-05-22T10:43:44.306Z,10.73
2023-05-22T10:46:12.977Z,8.48
2023-05-22T10:48:41.719Z,7.73
2023-05-22T10:51:08.965Z,3.30
2023-05-22T10:53:36.202Z,5.55
2023-05-22T10:56:14.018Z,9.55
2023-05-22T10:58:44.094Z,10.15
2023-05-22T11:01:12.762Z,14.38
2023-05-22T11:03:58.289Z,10.07
2023-05-22T11:06:49.013Z,9.30
2023-05-22T11:09:31.298Z,6.35
2023-05-22T11:12:22.528Z,4.95
2023-05-22T11:14:51.403Z,5.00
2023-05-22T11:17:23.437Z,6.47
2023-05-22T11:20:05.320Z,5.13
2023-05-22T11:22:35.000Z,11.13
2023-05-22T11:25:05.279Z,7.05
2023-05-22T11:27:32.072Z,7.15
2023-05-22T11:30:00.217Z,4.97
2023-05-22T11:32:27.703Z,9.82
2023-05-22T11:34:57.934Z,7.57
2023-05-22T11:37:24.518Z,3.38
2023-05-22T11:39:55.940Z,8.10
2023-05-22T11:42:22.532Z,6.43
2023-05-22T11:44:49.073Z,8.45
2023-05-22T11:47:15.817Z,4.80
2023-05-22T11:49:43.088Z,11.18
2023-05-22T11:52:10.457Z,11.23
2023-05-22T11:54:38.766Z,7.93
2023-05-22T11:57:09.237Z,11.18
2023-05-22T11:59:36.173Z,11.10
2023-05-22T12:02:02.799Z,7.28
2023-05-22T12:04:29.698Z,13.20
2023-05-22T12:06:56.653Z,13.85
2023-05-22T12:09:23.494Z,5.10
2023-05-22T12:11:50.336Z,10.10
2023-05-22T12:14:16.861Z,9.25
2023-05-22T12:16:44.527Z,8.27
2023-05-22T12:19:12.140Z,8.15
2023-05-22T12:21:39.490Z,9.80
2023-05-22T12:24:06.597Z,10.48
2023-05-22T12:26:33.176Z,11.10
2023-05-22T12:28:59.755Z,5.57
2023-05-22T12:31:26.519Z,7.50
2023-05-22T12:33:55.019Z,10.60
2023-05-22T12:36:22.087Z,11.65
2023-05-22T12:38:48.592Z,5.40
2023-05-22T12:41:15.227Z,7.45
2023-05-22T12:43:41.729Z,9.13
2023-05-22T12:46:08.241Z,5.65
2023-05-22T12:48:34.811Z,10.43
2023-05-22T12:51:01.379Z,6.95
2023-05-22T12:53:27.884Z,11.55
2023-05-22T12:55:54.372Z,6.28
2023-05-22T12:58:20.916Z,9.02
2023-05-22T13:00:47.492Z,6.38
2023-05-22T13:03:14.112Z,9.90
2023-05-22T13:05:40.924Z,6.57
2023-05-22T13:08:07.799Z,8.45
2023-05-22T13:10:35.430Z,8.75
2023-05-22T13:13:01.916Z,9.20
2023-05-22T13:15:29.615Z,6.07
2023-05-22T13:17:56.865Z,8.75
2023-05-22T13:20:23.721Z,5.18
2023-05-22T13:22:50.360Z,8.27
2023-05-22T13:25:19.071Z,11.20
2023-05-22T13:27:46.558Z,7.97
2023-05-22T13:30:13.438Z,6.55
2023-05-22T13:32:40.009Z,11.55
2023-05-22T13:35:06.868Z,7.43
2023-05-22T13:37:33.378Z,12.32
2023-05-22T13:39:59.800Z,11.57
2023-05-22T13:42:26.296Z,9.23
2023-05-22T13:44:52.759Z,14.45
2023-05-22T13:47:19.267Z,5.28
2023-05-22T13:49:45.885Z,13.45
2023-05-22T13:52:12.327Z,6.70
2023-05-22T13:54:38.771Z,5.80
2023-05-22T13:57:06.559Z,6.10
2023-05-22T13:59:33.208Z,8.00
2023-05-22T14:01:59.669Z,5.63
2023-05-22T14:04:26.496Z,9.85
2023-05-22T14:06:53.012Z,12.25
2023-05-22T14:09:19.661Z,8.52
2023-05-22T14:11:46.451Z,7.00
2023-05-22T14:14:12.992Z,8.52
2023-05-22T14:16:39.501Z,9.25
2023-05-22T14:19:06.044Z,6.07
2023-05-22T14:21:33.050Z,7.90
2023-05-22T14:24:00.893Z,8.80
2023-05-22T14:26:27.329Z,6.05
2023-05-22T14:28:54.012Z,10.75
2023-05-22T14:31:20.507Z,4.15
2023-05-22T14:33:46.989Z,8.73
2023-05-22T14:36:13.433Z,5.50
2023-05-22T14:38:39.863Z,10.38
2023-05-22T14:41:06.330Z,6.85
2023-05-22T14:43:33.419Z,9.18
2023-05-22T14:46:00.008Z,12.05
2023-05-22T14:48:26.905Z,10.95
2023-05-22T14:50:53.809Z,9.00
2023-05-22T14:53:20.724Z,5.53
2023-05-22T14:55:47.524Z,7.82
2023-05-22T14:58:14.146Z,4.07
2023-05-22T15:00:42.658Z,5.85
2023-05-22T15:03:09.137Z,4.80
2023-05-22T15:05:35.588Z,16.10
2023-05-22T15:08:02.114Z,11.45
2023-05-22T15:10:28.636Z,4.78
2023-05-22T15:12:55.136Z,4.35
2023-05-22T15:15:21.605Z,5.78
2023-05-22T15:17:48.045Z,7.88
2023-05-22T15:20:14.538Z,6.43
2023-05-22T15:22:41.099Z,5.28
2023-05-22T15:25:11.373Z,6.32
2023-05-22T15:27:39.410Z,10.10
2023-05-22T15:30:09.751Z,12.65
2023-05-22T15:32:37.115Z,7.97
2023-05-22T15:35:05.388Z,6.28
2023-05-22T15:37:33.632Z,13.07
2023-05-22T15:40:01.317Z,5.80
2023-05-22T15:42:27.849Z,7.80
2023-05-22T15:44:54.417Z,6.50
2023-05-22T15:47:21.064Z,6.18
2023-05-22T15:49:47.508Z,6.82
2023-05-22T15:52:13.944Z,4.63
2023-05-22T15:54:40.474Z,6.47
2023-05-22T15:57:07.026Z,11.20
2023-05-22T15:59:33.486Z,8.93
2023-05-22T16:01:59.919Z,6.28
2023-05-22T16:04:26.349Z,4.80
2023-05-22T16:06:52.783Z,7.60
2023-05-22T16:09:19.465Z,6.05
2023-05-22T16:11:45.957Z,8.60
2023-05-22T16:14:12.423Z,7.47
2023-05-22T16:16:38.975Z,8.20
2023-05-22T16:19:05.706Z,14.10
2023-05-22T16:21:32.294Z,5.75
2023-05-22T16:23:59.456Z,7.72
2023-05-22T16:26:26.835Z,6.22
2023-05-22T16:28:53.274Z,6.00
2023-05-22T16:31:19.879Z,4.78
2023-05-22T16:33:46.393Z,8.80
2023-05-22T16:36:12.812Z,6.70
2023-05-22T16:38:39.360Z,7.22
2023-05-22T16:41:05.789Z,4.20
2023-05-22T16:43:32.208Z,4.65
2023-05-22T16:45:58.650Z,6.65
2023-05-22T16:48:25.133Z,3.83
2023-05-22T16:50:51.638Z,5.90
2023-05-22T16:53:18.091Z,7.70
2023-05-22T16:55:44.665Z,4.82
2023-05-22T16:58:12.743Z,8.60
2023-05-22T17:00:40.290Z,4.85
2023-05-22T17:03:08.090Z,8.02
2023-05-22T17:05:35.749Z,4.50
2023-05-22T17:08:02.188Z,5.47
2023-05-22T17:10:28.794Z,7.15
2023-05-22T17:12:55.307Z,14.32
2023-05-22T17:15:21.743Z,5.22
2023-05-22T17:17:48.264Z,9.02
2023-05-22T17:20:14.786Z,4.43
2023-05-22T17:22:42.586Z,3.20
2023-05-22T17:25:09.641Z,6.25
2023-05-22T17:27:36.978Z,5.28
2023-05-22T17:30:04.836Z,15.05
2023-05-22T17:32:31.650Z,8.68
2023-05-22T17:34:58.574Z,3.55
2023-05-22T17:37:25.070Z,4.88
2023-05-22T17:39:51.811Z,6.25
2023-05-22T17:42:18.343Z,8.45
2023-05-22T17:44:45.006Z,6.22
2023-05-22T17:47:13.191Z,4.07
2023-05-22T17:49:39.598Z,4.57
2023-05-22T17:52:07.444Z,8.25
2023-05-22T17:54:35.022Z,4.78
2023-05-22T17:57:03.938Z,3.38
2023-05-22T17:59:32.572Z,8.27
2023-05-22T18:01:59.142Z,3.55
2023-05-22T18:04:25.971Z,7.55
2023-05-22T18:06:52.478Z,3.88
2023-05-22T18:09:18.948Z,7.28
2023-05-22T18:11:45.429Z,8.52
2023-05-22T18:14:11.980Z,5.82
2023-05-22T18:16:38.549Z,7.10
2023-05-22T18:19:05.065Z,8.13
2023-05-22T18:21:32.221Z,7.25
2023-05-22T18:23:58.805Z,5.60
2023-05-22T18:26:26.632Z,5.88
2023-05-22T18:28:53.095Z,6.80
2023-05-22T18:31:19.627Z,6.55
2023-05-22T18:33:46.526Z,5.93
2023-05-22T18:36:13.039Z,9.77
2023-05-22T18:38:39.564Z,4.78
2023-05-22T18:41:06.511Z,5.35
2023-05-22T18:43:33.001Z,5.47
2023-05-22T18:45:59.493Z,5.85
2023-05-22T18:48:27.138Z,5.38
2023-05-22T18:50:53.787Z,3.95
2023-05-22T18:53:22.099Z,7.97
2023-05-22T18:55:48.796Z,9.13
2023-05-22T18:58:15.340Z,8.90
2023-05-22T19:00:42.101Z,7.50
2023-05-22T19:03:11.204Z,7.65
2023-05-22T19:05:38.009Z,7.25
2023-05-22T19:08:05.010Z,7.72
2023-05-22T19:10:31.706Z,6.97
2023-05-22T19:12:58.142Z,8.73
2023-05-22T19:15:25.799Z,11.70
2023-05-22T19:17:52.295Z,10.23
2023-05-22T19:20:18.746Z,9.55
2023-05-22T19:22:45.171Z,4.75
2023-05-22T19:25:11.641Z,5.38
2023-05-22T19:27:39.081Z,10.55
2023-05-22T19:30:06.685Z,5.03
2023-05-22T19:32:33.158Z,10.85
2023-05-22T19:34:59.656Z,6.85
2023-05-22T19:37:26.160Z,3.90
2023-05-22T19:39:53.987Z,8.07
2023-05-22T19:42:20.448Z,10.73
2023-05-22T19:44:47.047Z,9.48
2023-05-22T19:47:13.517Z,11.10
2023-05-22T19:49:40.007Z,9.00
2023-05-22T19:52:06.614Z,12.02
2023-05-22T19:54:33.129Z,12.35
2023-05-22T19:56:59.573Z,12.98
2023-05-22T19:59:27.004Z,9.38
2023-05-22T20:01:53.982Z,8.18
2023-05-22T20:04:21.392Z,10.48
2023-05-22T20:06:48.385Z,9.27
2023-05-22T20:09:15.004Z,5.18
2023-05-22T20:11:41.462Z,10.80
2023-05-22T20:14:08.236Z,14.55
2023-05-22T20:16:34.939Z,8.32
2023-05-22T20:19:02.506Z,7.75
2023-05-22T20:21:29.157Z,8.13
2023-05-22T20:23:55.682Z,9.20
2023-05-22T20:26:22.240Z,10.35
2023-05-22T20:28:48.674Z,8.85
2023-05-22T20:31:15.160Z,10.23
2023-05-22T20:33:41.841Z,7.47
2023-05-22T20:36:08.643Z,10.23
2023-05-22T20:38:35.145Z,10.30
2023-05-22T20:41:02.854Z,7.75
2023-05-22T20:43:31.973Z,10.18
2023-05-22T20:45:58.465Z,11.65
2023-05-22T20:48:24.962Z,7.47
2023-05-22T20:50:52.383Z,13.57
2023-05-22T20:53:19.470Z,9.10
2023-05-22T20:55:45.944Z,5.75
2023-05-22T20:58:13.822Z,7.45
2023-05-22T21:00:41.926Z,8.93
2023-05-22T21:03:08.798Z,8.13
2023-05-22T21:05:35.656Z,8.18
2023-05-22T21:08:02.200Z,16.63
2023-05-22T21:10:28.713Z,13.45
2023-05-22T21:12:55.165Z,8.02
2023-05-22T21:15:21.686Z,7.47
2023-05-22T21:17:48.153Z,3.60
2023-05-22T21:20:14.625Z,13.45
2023-05-22T21:22:41.289Z,7.35
2023-05-22T21:25:08.578Z,10.88
2023-05-22T21:27:35.017Z,6.03
2023-05-22T21:30:01.447Z,7.05
2023-05-22T21:32:27.890Z,7.00
2023-05-22T21:34:54.366Z,8.45
2023-05-22T21:37:20.812Z,8.40
2023-05-22T21:39:47.277Z,7.03
2023-05-22T21:42:16.276Z,9.85
2023-05-22T21:44:42.830Z,5.72
2023-05-22T21:47:09.736Z,10.88
2023-05-22T21:49:38.756Z,7.18
2023-05-22T21:52:05.922Z,11.85
2023-05-22T21:54:32.381Z,8.02
2023-05-22T21:56:58.902Z,8.13
2023-05-22T21:59:25.426Z,8.68
2023-05-22T22:01:51.974Z,7.10
2023-05-22T22:04:18.454Z,8.07
2023-05-22T22:06:44.931Z,8.50
2023-05-22T22:09:11.369Z,8.60
2023-05-22T22:11:37.864Z,7.78
2023-05-22T22:14:04.350Z,8.07
2023-05-22T22:16:35.395Z,7.28
2023-05-22T22:19:02.729Z,8.45
2023-05-22T22:21:29.666Z,9.95
2023-05-22T22:23:56.107Z,7.28
2023-05-22T22:26:22.606Z,9.65
2023-05-22T22:28:49.027Z,6.72
2023-05-22T22:31:15.617Z,9.15
2023-05-22T22:33:42.056Z,13.23
2023-05-22T22:36:08.782Z,11.27
2023-05-22T22:38:35.400Z,11.45
2023-05-22T22:41:01.893Z,7.22
2023-05-22T22:43:28.314Z,9.43
2023-05-22T22:45:55.716Z,8.73
2023-05-22T22:48:22.455Z,14.43
2023-05-22T22:50:49.342Z,16.45
2023-05-22T22:53:15.820Z,8.98
2023-05-22T22:55:42.601Z,11.23
2023-05-22T22:58:09.544Z,11.80
2023-05-22T23:00:36.663Z,6.22
2023-05-22T23:03:03.261Z,12.50
2023-05-22T23:05:29.757Z,12.32
2023-05-22T23:07:58.285Z,7.45
2023-05-22T23:10:24.788Z,11.93
2023-05-22T23:12:51.216Z,10.27
2023-05-22T23:15:17.792Z,9.50
2023-05-22T23:17:44.349Z,13.65
2023-05-22T23:20:11.082Z,10.98
2023-05-22T23:22:37.713Z,6.50
2023-05-22T23:25:04.418Z,10.80
2023-05-22T23:27:30.972Z,11.05
2023-05-22T23:29:58.153Z,11.10
2023-05-22T23:32:24.903Z,11.90
2023-05-22T23:34:51.406Z,6.85
2023-05-22T23:37:17.851Z,11.77
2023-05-22T23:39:44.268Z,8.93
2023-05-22T23:42:11.910Z,6.63
2023-05-22T23:44:38.332Z,9.77
2023-05-22T23:47:05.763Z,7.85
2023-05-22T23:49:32.349Z,7.47
2023-05-22T23:51:58.944Z,11.35
2023-05-22T23:54:25.432Z,11.02
2023-05-22T23:56:51.874Z,8.15
2023-05-22T23:59:18.314Z,11.00
